sensor_id;sensor_type;location;lat;lon;timestamp;P1;durP1;ratioP1;P2;durP2;ratioP2
15273;SDS011;7738;49.532;11.156;2022-08-19T00:00:29;22.27;;;18.70;;
15273;SDS011;7738;49.532;11.156;2022-08-19T00:02:59;22.33;;;19.92;;
15273;SDS011;7738;49.532;11.156;2022-08-19T00:05:30;21.48;;;19.08;;
15273;SDS011;7738;49.532;11.156;2022-08-19T00:08:00;26.17;;;17.73;;
15273;SDS011;7738;49.532;11.156;2022-08-19T00:10:33;22.40;;;19.48;;
15273;SDS011;7738;49.532;11.156;2022-08-19T00:13:03;24.20;;;21.27;;
15273;SDS011;7738;49.532;11.156;2022-08-19T00:15:33;23.30;;;20.90;;
15273;SDS011;7738;49.532;11.156;2022-08-19T00:18:04;22.48;;;20.05;;
15273;SDS011;7738;49.532;11.156;2022-08-19T00:20:34;21.42;;;19.13;;
15273;SDS011;7738;49.532;11.156;2022-08-19T00:23:06;21.85;;;19.63;;
15273;SDS011;7738;49.532;11.156;2022-08-19T00:25:39;20.70;;;18.60;;
15273;SDS011;7738;49.532;11.156;2022-08-19T00:28:14;21.13;;;17.48;;
15273;SDS011;7738;49.532;11.156;2022-08-19T00:30:44;23.83;;;20.02;;
15273;SDS011;7738;49.532;11.156;2022-08-19T00:33:14;21.15;;;18.20;;
15273;SDS011;7738;49.532;11.156;2022-08-19T00:35:44;20.70;;;18.55;;
15273;SDS011;7738;49.532;11.156;2022-08-19T00:38:21;22.38;;;20.02;;
15273;SDS011;7738;49.532;11.156;2022-08-19T00:41:06;24.13;;;17.75;;
15273;SDS011;7738;49.532;11.156;2022-08-19T00:43:36;18.48;;;16.45;;
15273;SDS011;7738;49.532;11.156;2022-08-19T00:46:07;20.85;;;17.63;;
15273;SDS011;7738;49.532;11.156;2022-08-19T00:48:38;21.08;;;18.35;;
15273;SDS011;7738;49.532;11.156;2022-08-19T00:51:08;17.90;;;15.95;;
15273;SDS011;7738;49.532;11.156;2022-08-19T00:53:38;17.80;;;15.90;;
15273;SDS011;7738;49.532;11.156;2022-08-19T00:56:12;21.23;;;16.27;;
15273;SDS011;7738;49.532;11.156;2022-08-19T00:58:43;20.95;;;17.95;;
15273;SDS011;7738;49.532;11.156;2022-08-19T01:01:13;18.02;;;16.23;;
15273;SDS011;7738;49.532;11.156;2022-08-19T01:03:44;21.40;;;18.25;;
15273;SDS011;7738;49.532;11.156;2022-08-19T01:06:23;20.10;;;17.58;;
15273;SDS011;7738;49.532;11.156;2022-08-19T01:08:54;17.90;;;16.00;;
15273;SDS011;7738;49.532;11.156;2022-08-19T01:11:27;18.73;;;15.90;;
15273;SDS011;7738;49.532;11.156;2022-08-19T01:13:58;18.83;;;16.88;;
15273;SDS011;7738;49.532;11.156;2022-08-19T01:16:28;19.98;;;17.50;;
15273;SDS011;7738;49.532;11.156;2022-08-19T01:19:01;20.35;;;18.15;;
15273;SDS011;7738;49.532;11.156;2022-08-19T01:21:32;19.40;;;17.10;;
15273;SDS011;7738;49.532;11.156;2022-08-19T01:24:09;19.75;;;17.75;;
15273;SDS011;7738;49.532;11.156;2022-08-19T01:26:40;19.50;;;16.97;;
15273;SDS011;7738;49.532;11.156;2022-08-19T01:29:12;20.73;;;17.48;;
15273;SDS011;7738;49.532;11.156;2022-08-19T01:31:43;21.33;;;16.63;;
15273;SDS011;7738;49.532;11.156;2022-08-19T01:34:13;19.88;;;17.77;;
15273;SDS011;7738;49.532;11.156;2022-08-19T01:36:44;21.35;;;18.63;;
15273;SDS011;7738;49.532;11.156;2022-08-19T01:39:20;21.40;;;17.60;;
15273;SDS011;7738;49.532;11.156;2022-08-19T01:41:53;21.08;;;18.27;;
15273;SDS011;7738;49.532;11.156;2022-08-19T01:44:23;22.58;;;18.63;;
15273;SDS011;7738;49.532;11.156;2022-08-19T01:46:53;20.27;;;17.48;;
15273;SDS011;7738;49.532;11.156;2022-08-19T01:49:23;23.00;;;18.88;;
15273;SDS011;7738;49.532;11.156;2022-08-19T01:51:54;18.88;;;16.77;;
15273;SDS011;7738;49.532;11.156;2022-08-19T01:54:27;20.75;;;18.58;;
15273;SDS011;7738;49.532;11.156;2022-08-19T01:56:58;22.75;;;17.80;;
15273;SDS011;7738;49.532;11.156;2022-08-19T01:59:31;19.52;;;17.52;;
15273;SDS011;7738;49.532;11.156;2022-08-19T02:02:03;19.35;;;17.10;;
15273;SDS011;7738;49.532;11.156;2022-08-19T02:04:34;20.50;;;18.40;;
15273;SDS011;7738;49.532;11.156;2022-08-19T02:07:04;22.20;;;17.20;;
15273;SDS011;7738;49.532;11.156;2022-08-19T02:09:37;19.70;;;17.67;;
15273;SDS011;7738;49.532;11.156;2022-08-19T02:12:07;20.20;;;17.25;;
15273;SDS011;7738;49.532;11.156;2022-08-19T02:14:37;19.30;;;16.70;;
15273;SDS011;7738;49.532;11.156;2022-08-19T02:17:08;18.80;;;16.73;;
15273;SDS011;7738;49.532;11.156;2022-08-19T02:19:38;19.55;;;17.38;;
15273;SDS011;7738;49.532;11.156;2022-08-19T02:22:08;19.92;;;17.83;;
15273;SDS011;7738;49.532;11.156;2022-08-19T02:24:41;22.13;;;18.73;;
15273;SDS011;7738;49.532;11.156;2022-08-19T02:27:11;21.20;;;17.98;;
15273;SDS011;7738;49.532;11.156;2022-08-19T02:29:50;21.23;;;17.90;;
15273;SDS011;7738;49.532;11.156;2022-08-19T02:32:20;21.58;;;17.65;;
15273;SDS011;7738;49.532;11.156;2022-08-19T02:34:50;20.30;;;17.88;;
15273;SDS011;7738;49.532;11.156;2022-08-19T02:37:21;17.67;;;15.88;;
15273;SDS011;7738;49.532;11.156;2022-08-19T02:40:07;17.13;;;15.35;;
15273;SDS011;7738;49.532;11.156;2022-08-19T02:42:38;18.25;;;16.35;;
15273;SDS011;7738;49.532;11.156;2022-08-19T02:45:10;20.85;;;18.58;;
15273;SDS011;7738;49.532;11.156;2022-08-19T02:47:40;20.85;;;15.88;;
15273;SDS011;7738;49.532;11.156;2022-08-19T02:50:11;19.77;;;17.70;;
15273;SDS011;7738;49.532;11.156;2022-08-19T02:52:41;19.60;;;17.00;;
15273;SDS011;7738;49.532;11.156;2022-08-19T02:55:14;24.98;;;19.67;;
15273;SDS011;7738;49.532;11.156;2022-08-19T02:57:45;28.15;;;25.13;;
15273;SDS011;7738;49.532;11.156;2022-08-19T03:00:15;29.20;;;25.02;;
15273;SDS011;7738;49.532;11.156;2022-08-19T03:02:46;29.25;;;26.25;;
15273;SDS011;7738;49.532;11.156;2022-08-19T03:05:16;25.35;;;22.17;;
15273;SDS011;7738;49.532;11.156;2022-08-19T03:08:06;23.40;;;21.10;;
15273;SDS011;7738;49.532;11.156;2022-08-19T03:10:45;25.38;;;20.75;;
15273;SDS011;7738;49.532;11.156;2022-08-19T03:13:18;21.67;;;19.27;;
15273;SDS011;7738;49.532;11.156;2022-08-19T03:15:48;43.30;;;37.47;;
15273;SDS011;7738;49.532;11.156;2022-08-19T03:18:18;35.83;;;30.30;;
15273;SDS011;7738;49.532;11.156;2022-08-19T03:20:49;22.05;;;19.65;;
15273;SDS011;7738;49.532;11.156;2022-08-19T03:23:22;24.00;;;20.38;;
15273;SDS011;7738;49.532;11.156;2022-08-19T03:25:55;24.20;;;19.27;;
15273;SDS011;7738;49.532;11.156;2022-08-19T03:28:42;22.88;;;19.30;;
15273;SDS011;7738;49.532;11.156;2022-08-19T03:31:25;21.20;;;17.48;;
15273;SDS011;7738;49.532;11.156;2022-08-19T03:34:17;25.35;;;19.77;;
15273;SDS011;7738;49.532;11.156;2022-08-19T03:36:53;23.60;;;19.05;;
15273;SDS011;7738;49.532;11.156;2022-08-19T03:39:24;25.95;;;20.25;;
15273;SDS011;7738;49.532;11.156;2022-08-19T03:41:57;25.73;;;19.60;;
15273;SDS011;7738;49.532;11.156;2022-08-19T03:44:48;24.48;;;20.45;;
15273;SDS011;7738;49.532;11.156;2022-08-19T03:47:19;21.65;;;19.35;;
15273;SDS011;7738;49.532;11.156;2022-08-19T03:49:49;22.58;;;19.40;;
15273;SDS011;7738;49.532;11.156;2022-08-19T03:52:19;23.25;;;20.13;;
15273;SDS011;7738;49.532;11.156;2022-08-19T03:54:49;25.30;;;22.17;;
15273;SDS011;7738;49.532;11.156;2022-08-19T03:57:22;22.60;;;19.73;;
15273;SDS011;7738;49.532;11.156;2022-08-19T03:59:57;23.27;;;18.33;;
15273;SDS011;7738;49.532;11.156;2022-08-19T04:02:39;23.00;;;20.50;;
15273;SDS011;7738;49.532;11.156;2022-08-19T04:05:26;24.02;;;21.23;;
15273;SDS011;7738;49.532;11.156;2022-08-19T04:07:56;23.52;;;20.80;;
15273;SDS011;7738;49.532;11.156;2022-08-19T04:10:27;23.08;;;19.48;;
15273;SDS011;7738;49.532;11.156;2022-08-19T04:13:00;24.45;;;20.70;;
15273;SDS011;7738;49.532;11.156;2022-08-19T04:15:30;29.30;;;21.90;;
15273;SDS011;7738;49.532;11.156;2022-08-19T04:18:05;26.50;;;21.35;;
15273;SDS011;7738;49.532;11.156;2022-08-19T04:20:40;25.77;;;20.90;;
15273;SDS011;7738;49.532;11.156;2022-08-19T04:23:11;24.17;;;20.00;;
15273;SDS011;7738;49.532;11.156;2022-08-19T04:25:42;24.65;;;20.10;;
15273;SDS011;7738;49.532;11.156;2022-08-19T04:28:16;22.63;;;19.60;;
15273;SDS011;7738;49.532;11.156;2022-08-19T04:30:47;22.27;;;18.85;;
15273;SDS011;7738;49.532;11.156;2022-08-19T04:33:20;22.52;;;19.75;;
15273;SDS011;7738;49.532;11.156;2022-08-19T04:35:54;24.08;;;20.42;;
15273;SDS011;7738;49.532;11.156;2022-08-19T04:38:24;23.55;;;18.67;;
15273;SDS011;7738;49.532;11.156;2022-08-19T04:40:54;25.88;;;22.10;;
15273;SDS011;7738;49.532;11.156;2022-08-19T04:43:39;20.65;;;17.85;;
15273;SDS011;7738;49.532;11.156;2022-08-19T04:46:11;23.67;;;19.17;;
15273;SDS011;7738;49.532;11.156;2022-08-19T04:49:03;25.30;;;21.30;;
15273;SDS011;7738;49.532;11.156;2022-08-19T04:51:39;22.48;;;18.90;;
15273;SDS011;7738;49.532;11.156;2022-08-19T04:54:13;25.90;;;20.35;;
15273;SDS011;7738;49.532;11.156;2022-08-19T04:57:04;25.38;;;21.35;;
15273;SDS011;7738;49.532;11.156;2022-08-19T04:59:39;24.70;;;20.50;;
15273;SDS011;7738;49.532;11.156;2022-08-19T05:02:09;24.80;;;21.50;;
15273;SDS011;7738;49.532;11.156;2022-08-19T05:04:40;24.83;;;21.08;;
15273;SDS011;7738;49.532;11.156;2022-08-19T05:07:10;25.27;;;21.92;;
15273;SDS011;7738;49.532;11.156;2022-08-19T05:09:40;28.40;;;23.40;;
15273;SDS011;7738;49.532;11.156;2022-08-19T05:12:24;25.42;;;21.92;;
15273;SDS011;7738;49.532;11.156;2022-08-19T05:14:58;30.73;;;22.23;;
15273;SDS011;7738;49.532;11.156;2022-08-19T05:17:29;23.35;;;20.13;;
15273;SDS011;7738;49.532;11.156;2022-08-19T05:20:05;24.35;;;19.98;;
15273;SDS011;7738;49.532;11.156;2022-08-19T05:22:49;23.10;;;19.00;;
15273;SDS011;7738;49.532;11.156;2022-08-19T05:25:20;24.60;;;21.15;;
15273;SDS011;7738;49.532;11.156;2022-08-19T05:27:52;21.50;;;17.65;;
15273;SDS011;7738;49.532;11.156;2022-08-19T05:30:28;25.55;;;20.17;;
15273;SDS011;7738;49.532;11.156;2022-08-19T05:33:13;20.27;;;17.80;;
15273;SDS011;7738;49.532;11.156;2022-08-19T05:35:44;24.15;;;19.85;;
15273;SDS011;7738;49.532;11.156;2022-08-19T05:38:15;23.75;;;20.10;;
15273;SDS011;7738;49.532;11.156;2022-08-19T05:40:46;24.38;;;20.88;;
15273;SDS011;7738;49.532;11.156;2022-08-19T05:43:16;24.08;;;21.05;;
15273;SDS011;7738;49.532;11.156;2022-08-19T05:45:49;30.40;;;22.58;;
15273;SDS011;7738;49.532;11.156;2022-08-19T05:48:19;28.40;;;22.85;;
15273;SDS011;7738;49.532;11.156;2022-08-19T05:50:50;24.45;;;20.08;;
15273;SDS011;7738;49.532;11.156;2022-08-19T05:53:20;27.13;;;20.77;;
15273;SDS011;7738;49.532;11.156;2022-08-19T05:55:50;27.35;;;20.48;;
15273;SDS011;7738;49.532;11.156;2022-08-19T05:58:22;26.98;;;21.00;;
15273;SDS011;7738;49.532;11.156;2022-08-19T06:00:56;25.77;;;20.58;;
15273;SDS011;7738;49.532;11.156;2022-08-19T06:03:31;22.08;;;19.63;;
15273;SDS011;7738;49.532;11.156;2022-08-19T06:06:03;22.00;;;19.67;;
15273;SDS011;7738;49.532;11.156;2022-08-19T06:08:34;22.40;;;19.55;;
15273;SDS011;7738;49.532;11.156;2022-08-19T06:11:12;22.02;;;18.73;;
15273;SDS011;7738;49.532;11.156;2022-08-19T06:13:46;20.60;;;18.38;;
15273;SDS011;7738;49.532;11.156;2022-08-19T06:16:28;21.38;;;18.92;;
15273;SDS011;7738;49.532;11.156;2022-08-19T06:19:02;23.08;;;16.75;;
15273;SDS011;7738;49.532;11.156;2022-08-19T06:21:34;21.70;;;18.88;;
15273;SDS011;7738;49.532;11.156;2022-08-19T06:24:07;19.30;;;17.27;;
15273;SDS011;7738;49.532;11.156;2022-08-19T06:26:40;21.98;;;17.80;;
15273;SDS011;7738;49.532;11.156;2022-08-19T06:29:32;20.20;;;17.30;;
15273;SDS011;7738;49.532;11.156;2022-08-19T06:32:05;18.27;;;16.25;;
15273;SDS011;7738;49.532;11.156;2022-08-19T06:34:35;18.70;;;15.73;;
15273;SDS011;7738;49.532;11.156;2022-08-19T06:37:07;18.58;;;15.82;;
15273;SDS011;7738;49.532;11.156;2022-08-19T06:39:38;19.80;;;16.48;;
15273;SDS011;7738;49.532;11.156;2022-08-19T06:44:44;19.92;;;16.35;;
15273;SDS011;7738;49.532;11.156;2022-08-19T06:47:21;19.63;;;15.38;;
15273;SDS011;7738;49.532;11.156;2022-08-19T06:49:54;19.77;;;15.90;;
15273;SDS011;7738;49.532;11.156;2022-08-19T06:52:30;18.55;;;14.27;;
15273;SDS011;7738;49.532;11.156;2022-08-19T06:55:02;19.35;;;17.13;;
15273;SDS011;7738;49.532;11.156;2022-08-19T06:57:33;17.02;;;14.90;;
15273;SDS011;7738;49.532;11.156;2022-08-19T07:00:05;21.75;;;16.92;;
15273;SDS011;7738;49.532;11.156;2022-08-19T07:02:41;17.90;;;15.95;;
15273;SDS011;7738;49.532;11.156;2022-08-19T07:07:54;21.48;;;18.70;;
15273;SDS011;7738;49.532;11.156;2022-08-19T07:10:30;22.20;;;17.30;;
15273;SDS011;7738;49.532;11.156;2022-08-19T07:13:01;19.90;;;16.23;;
15273;SDS011;7738;49.532;11.156;2022-08-19T07:15:32;19.30;;;15.98;;
15273;SDS011;7738;49.532;11.156;2022-08-19T07:18:08;17.40;;;15.15;;
15273;SDS011;7738;49.532;11.156;2022-08-19T07:20:38;16.98;;;13.80;;
15273;SDS011;7738;49.532;11.156;2022-08-19T07:23:09;14.13;;;12.65;;
15273;SDS011;7738;49.532;11.156;2022-08-19T07:25:42;17.27;;;13.50;;
15273;SDS011;7738;49.532;11.156;2022-08-19T07:28:18;20.85;;;15.52;;
15273;SDS011;7738;49.532;11.156;2022-08-19T07:30:50;16.55;;;14.45;;
15273;SDS011;7738;49.532;11.156;2022-08-19T07:33:23;19.85;;;14.70;;
15273;SDS011;7738;49.532;11.156;2022-08-19T07:35:54;18.95;;;15.32;;
15273;SDS011;7738;49.532;11.156;2022-08-19T07:38:25;20.65;;;15.05;;
15273;SDS011;7738;49.532;11.156;2022-08-19T07:40:55;16.33;;;13.68;;
15273;SDS011;7738;49.532;11.156;2022-08-19T07:43:25;19.08;;;15.35;;
15273;SDS011;7738;49.532;11.156;2022-08-19T07:46:00;16.90;;;15.02;;
15273;SDS011;7738;49.532;11.156;2022-08-19T07:48:33;14.73;;;12.75;;
15273;SDS011;7738;49.532;11.156;2022-08-19T07:51:05;14.87;;;12.67;;
15273;SDS011;7738;49.532;11.156;2022-08-19T07:53:39;15.88;;;12.23;;
15273;SDS011;7738;49.532;11.156;2022-08-19T07:56:11;13.85;;;12.30;;
15273;SDS011;7738;49.532;11.156;2022-08-19T07:58:43;13.38;;;11.93;;
15273;SDS011;7738;49.532;11.156;2022-08-19T08:01:16;14.23;;;11.70;;
15273;SDS011;7738;49.532;11.156;2022-08-19T08:06:33;14.32;;;12.77;;
15273;SDS011;7738;49.532;11.156;2022-08-19T08:09:17;16.27;;;13.52;;
15273;SDS011;7738;49.532;11.156;2022-08-19T08:11:51;17.77;;;14.30;;
15273;SDS011;7738;49.532;11.156;2022-08-19T08:14:31;18.48;;;14.68;;
15273;SDS011;7738;49.532;11.156;2022-08-19T08:17:09;20.15;;;14.52;;
15273;SDS011;7738;49.532;11.156;2022-08-19T08:19:58;18.85;;;15.20;;
15273;SDS011;7738;49.532;11.156;2022-08-19T08:22:29;18.35;;;14.90;;
15273;SDS011;7738;49.532;11.156;2022-08-19T08:25:13;17.20;;;15.18;;
15273;SDS011;7738;49.532;11.156;2022-08-19T08:27:46;20.05;;;14.75;;
15273;SDS011;7738;49.532;11.156;2022-08-19T08:30:24;18.98;;;13.98;;
15273;SDS011;7738;49.532;11.156;2022-08-19T08:32:58;20.98;;;16.35;;
15273;SDS011;7738;49.532;11.156;2022-08-19T08:35:31;17.58;;;13.95;;
15273;SDS011;7738;49.532;11.156;2022-08-19T08:38:01;22.52;;;15.68;;
15273;SDS011;7738;49.532;11.156;2022-08-19T08:40:34;21.65;;;15.93;;
15273;SDS011;7738;49.532;11.156;2022-08-19T08:43:14;21.25;;;15.77;;
15273;SDS011;7738;49.532;11.156;2022-08-19T08:45:58;23.52;;;15.95;;
15273;SDS011;7738;49.532;11.156;2022-08-19T08:48:37;20.27;;;15.52;;
15273;SDS011;7738;49.532;11.156;2022-08-19T08:51:22;20.10;;;15.65;;
15273;SDS011;7738;49.532;11.156;2022-08-19T08:54:04;19.88;;;14.75;;
15273;SDS011;7738;49.532;11.156;2022-08-19T08:56:37;19.13;;;14.77;;
15273;SDS011;7738;49.532;11.156;2022-08-19T08:59:10;18.67;;;15.45;;
15273;SDS011;7738;49.532;11.156;2022-08-19T09:01:43;24.00;;;16.58;;
15273;SDS011;7738;49.532;11.156;2022-08-19T09:04:14;20.20;;;14.73;;
15273;SDS011;7738;49.532;11.156;2022-08-19T09:06:50;19.85;;;14.68;;
15273;SDS011;7738;49.532;11.156;2022-08-19T09:09:52;18.27;;;13.70;;
15273;SDS011;7738;49.532;11.156;2022-08-19T09:12:33;26.15;;;15.43;;
15273;SDS011;7738;49.532;11.156;2022-08-19T09:15:14;16.55;;;13.55;;
15273;SDS011;7738;49.532;11.156;2022-08-19T09:17:58;21.00;;;16.45;;
15273;SDS011;7738;49.532;11.156;2022-08-19T09:20:32;20.02;;;15.95;;
15273;SDS011;7738;49.532;11.156;2022-08-19T09:23:10;21.10;;;16.60;;
15273;SDS011;7738;49.532;11.156;2022-08-19T09:25:41;19.80;;;16.50;;
15273;SDS011;7738;49.532;11.156;2022-08-19T09:28:11;20.90;;;15.63;;
15273;SDS011;7738;49.532;11.156;2022-08-19T09:30:48;18.58;;;15.82;;
15273;SDS011;7738;49.532;11.156;2022-08-19T09:33:18;19.10;;;16.38;;
15273;SDS011;7738;49.532;11.156;2022-08-19T09:35:49;22.88;;;17.30;;
15273;SDS011;7738;49.532;11.156;2022-08-19T09:38:22;19.83;;;16.98;;
15273;SDS011;7738;49.532;11.156;2022-08-19T09:40:52;22.92;;;18.17;;
15273;SDS011;7738;49.532;11.156;2022-08-19T09:43:24;24.23;;;17.75;;
15273;SDS011;7738;49.532;11.156;2022-08-19T09:46:09;21.85;;;18.95;;
15273;SDS011;7738;49.532;11.156;2022-08-19T09:48:43;22.70;;;17.73;;
15273;SDS011;7738;49.532;11.156;2022-08-19T09:51:15;26.50;;;18.77;;
15273;SDS011;7738;49.532;11.156;2022-08-19T09:58:53;24.38;;;18.15;;
15273;SDS011;7738;49.532;11.156;2022-08-19T10:01:24;25.15;;;17.95;;
15273;SDS011;7738;49.532;11.156;2022-08-19T10:03:56;31.98;;;19.70;;
15273;SDS011;7738;49.532;11.156;2022-08-19T10:06:35;25.85;;;20.27;;
15273;SDS011;7738;49.532;11.156;2022-08-19T10:09:16;27.13;;;18.67;;
15273;SDS011;7738;49.532;11.156;2022-08-19T10:11:59;27.98;;;19.67;;
15273;SDS011;7738;49.532;11.156;2022-08-19T10:14:31;26.00;;;18.95;;
15273;SDS011;7738;49.532;11.156;2022-08-19T10:17:04;37.08;;;21.75;;
15273;SDS011;7738;49.532;11.156;2022-08-19T10:19:45;27.60;;;19.80;;
15273;SDS011;7738;49.532;11.156;2022-08-19T10:22:22;24.38;;;18.80;;
15273;SDS011;7738;49.532;11.156;2022-08-19T10:24:55;29.35;;;19.55;;
15273;SDS011;7738;49.532;11.156;2022-08-19T10:27:25;25.50;;;19.50;;
15273;SDS011;7738;49.532;11.156;2022-08-19T10:29:57;26.05;;;19.17;;
15273;SDS011;7738;49.532;11.156;2022-08-19T10:32:28;24.73;;;19.33;;
15273;SDS011;7738;49.532;11.156;2022-08-19T10:35:00;23.75;;;18.48;;
15273;SDS011;7738;49.532;11.156;2022-08-19T10:37:32;24.17;;;17.60;;
15273;SDS011;7738;49.532;11.156;2022-08-19T10:40:19;24.33;;;17.58;;
15273;SDS011;7738;49.532;11.156;2022-08-19T10:43:04;20.95;;;17.65;;
15273;SDS011;7738;49.532;11.156;2022-08-19T10:45:34;21.40;;;16.85;;
15273;SDS011;7738;49.532;11.156;2022-08-19T10:48:18;31.17;;;19.83;;
15273;SDS011;7738;49.532;11.156;2022-08-19T10:50:48;20.30;;;16.50;;
15273;SDS011;7738;49.532;11.156;2022-08-19T10:53:30;22.90;;;17.27;;
15273;SDS011;7738;49.532;11.156;2022-08-19T10:56:04;27.88;;;19.23;;
15273;SDS011;7738;49.532;11.156;2022-08-19T10:58:46;21.70;;;16.23;;
15273;SDS011;7738;49.532;11.156;2022-08-19T11:01:17;19.52;;;16.63;;
15273;SDS011;7738;49.532;11.156;2022-08-19T11:03:47;25.08;;;18.25;;
15273;SDS011;7738;49.532;11.156;2022-08-19T11:06:20;23.25;;;18.88;;
15273;SDS011;7738;49.532;11.156;2022-08-19T11:08:51;21.85;;;18.25;;
15273;SDS011;7738;49.532;11.156;2022-08-19T11:11:24;23.58;;;16.85;;
15273;SDS011;7738;49.532;11.156;2022-08-19T11:13:55;22.52;;;19.13;;
15273;SDS011;7738;49.532;11.156;2022-08-19T11:16:26;22.77;;;17.50;;
15273;SDS011;7738;49.532;11.156;2022-08-19T11:18:58;27.63;;;19.75;;
15273;SDS011;7738;49.532;11.156;2022-08-19T11:21:29;24.13;;;18.70;;
15273;SDS011;7738;49.532;11.156;2022-08-19T11:24:02;22.05;;;17.80;;
15273;SDS011;7738;49.532;11.156;2022-08-19T11:26:37;22.33;;;17.42;;
15273;SDS011;7738;49.532;11.156;2022-08-19T11:29:09;25.60;;;18.48;;
15273;SDS011;7738;49.532;11.156;2022-08-19T11:31:41;21.77;;;17.25;;
15273;SDS011;7738;49.532;11.156;2022-08-19T11:34:15;22.55;;;17.33;;
15273;SDS011;7738;49.532;11.156;2022-08-19T11:36:47;21.73;;;16.75;;
15273;SDS011;7738;49.532;11.156;2022-08-19T11:39:19;22.67;;;18.23;;
15273;SDS011;7738;49.532;11.156;2022-08-19T11:41:52;22.05;;;17.17;;
15273;SDS011;7738;49.532;11.156;2022-08-19T11:44:22;23.08;;;17.45;;
15273;SDS011;7738;49.532;11.156;2022-08-19T11:46:53;22.88;;;16.95;;
15273;SDS011;7738;49.532;11.156;2022-08-19T11:49:34;18.10;;;15.45;;
15273;SDS011;7738;49.532;11.156;2022-08-19T11:52:05;21.23;;;16.85;;
15273;SDS011;7738;49.532;11.156;2022-08-19T11:54:35;17.52;;;15.68;;
15273;SDS011;7738;49.532;11.156;2022-08-19T11:57:08;19.58;;;15.52;;
15273;SDS011;7738;49.532;11.156;2022-08-19T11:59:38;21.92;;;16.85;;
15273;SDS011;7738;49.532;11.156;2022-08-19T12:02:09;18.95;;;16.58;;
15273;SDS011;7738;49.532;11.156;2022-08-19T12:04:40;20.50;;;17.25;;
15273;SDS011;7738;49.532;11.156;2022-08-19T12:07:10;22.80;;;17.20;;
15273;SDS011;7738;49.532;11.156;2022-08-19T12:09:41;27.30;;;17.42;;
15273;SDS011;7738;49.532;11.156;2022-08-19T12:12:16;18.38;;;15.90;;
15273;SDS011;7738;49.532;11.156;2022-08-19T12:14:47;21.45;;;17.58;;
15273;SDS011;7738;49.532;11.156;2022-08-19T12:17:23;22.05;;;17.95;;
15273;SDS011;7738;49.532;11.156;2022-08-19T12:19:53;20.15;;;16.95;;
15273;SDS011;7738;49.532;11.156;2022-08-19T12:22:23;22.23;;;17.65;;
15273;SDS011;7738;49.532;11.156;2022-08-19T12:24:54;21.70;;;17.80;;
15273;SDS011;7738;49.532;11.156;2022-08-19T12:27:27;20.88;;;17.42;;
15273;SDS011;7738;49.532;11.156;2022-08-19T12:30:09;20.75;;;17.75;;
15273;SDS011;7738;49.532;11.156;2022-08-19T12:32:41;19.23;;;15.70;;
15273;SDS011;7738;49.532;11.156;2022-08-19T12:35:12;20.02;;;17.27;;
15273;SDS011;7738;49.532;11.156;2022-08-19T12:37:42;18.85;;;16.63;;
15273;SDS011;7738;49.532;11.156;2022-08-19T12:40:22;21.70;;;16.58;;
15273;SDS011;7738;49.532;11.156;2022-08-19T12:42:55;19.08;;;16.02;;
15273;SDS011;7738;49.532;11.156;2022-08-19T12:45:25;20.27;;;17.40;;
15273;SDS011;7738;49.532;11.156;2022-08-19T12:47:56;18.95;;;16.65;;
15273;SDS011;7738;49.532;11.156;2022-08-19T12:50:28;23.27;;;18.73;;
15273;SDS011;7738;49.532;11.156;2022-08-19T12:52:59;23.20;;;19.02;;
15273;SDS011;7738;49.532;11.156;2022-08-19T12:55:29;23.27;;;19.92;;
15273;SDS011;7738;49.532;11.156;2022-08-19T12:58:02;24.02;;;19.50;;
15273;SDS011;7738;49.532;11.156;2022-08-19T13:00:32;25.10;;;19.52;;
15273;SDS011;7738;49.532;11.156;2022-08-19T13:03:02;27.23;;;20.60;;
15273;SDS011;7738;49.532;11.156;2022-08-19T13:05:33;21.67;;;19.23;;
15273;SDS011;7738;49.532;11.156;2022-08-19T13:08:03;23.05;;;18.38;;
15273;SDS011;7738;49.532;11.156;2022-08-19T13:10:34;22.15;;;18.85;;
15273;SDS011;7738;49.532;11.156;2022-08-19T13:13:08;23.17;;;19.80;;
15273;SDS011;7738;49.532;11.156;2022-08-19T13:18:11;24.60;;;19.48;;
15273;SDS011;7738;49.532;11.156;2022-08-19T13:20:42;28.88;;;21.10;;
15273;SDS011;7738;49.532;11.156;2022-08-19T13:23:18;27.73;;;22.00;;
15273;SDS011;7738;49.532;11.156;2022-08-19T13:25:55;26.65;;;20.50;;
15273;SDS011;7738;49.532;11.156;2022-08-19T13:28:29;25.48;;;20.42;;
15273;SDS011;7738;49.532;11.156;2022-08-19T13:31:19;25.70;;;20.35;;
15273;SDS011;7738;49.532;11.156;2022-08-19T13:34:04;24.30;;;20.55;;
15273;SDS011;7738;49.532;11.156;2022-08-19T13:36:35;21.45;;;19.15;;
15273;SDS011;7738;49.532;11.156;2022-08-19T13:39:06;22.75;;;18.88;;
15273;SDS011;7738;49.532;11.156;2022-08-19T13:41:37;25.05;;;19.27;;
15273;SDS011;7738;49.532;11.156;2022-08-19T13:44:17;22.45;;;18.88;;
15273;SDS011;7738;49.532;11.156;2022-08-19T13:46:48;24.10;;;18.52;;
15273;SDS011;7738;49.532;11.156;2022-08-19T13:49:19;19.48;;;17.38;;
15273;SDS011;7738;49.532;11.156;2022-08-19T13:51:50;20.83;;;17.08;;
15273;SDS011;7738;49.532;11.156;2022-08-19T13:54:20;21.48;;;17.27;;
15273;SDS011;7738;49.532;11.156;2022-08-19T13:56:50;22.05;;;16.70;;
15273;SDS011;7738;49.532;11.156;2022-08-19T13:59:23;18.30;;;14.82;;
15273;SDS011;7738;49.532;11.156;2022-08-19T14:01:57;17.38;;;13.43;;
15273;SDS011;7738;49.532;11.156;2022-08-19T14:04:27;15.27;;;13.07;;
15273;SDS011;7738;49.532;11.156;2022-08-19T14:06:58;15.32;;;12.02;;
15273;SDS011;7738;49.532;11.156;2022-08-19T14:09:28;11.88;;;10.32;;
15273;SDS011;7738;49.532;11.156;2022-08-19T14:11:58;10.32;;;8.30;;
15273;SDS011;7738;49.532;11.156;2022-08-19T14:14:31;9.45;;;8.38;;
15273;SDS011;7738;49.532;11.156;2022-08-19T14:17:01;9.15;;;8.10;;
15273;SDS011;7738;49.532;11.156;2022-08-19T14:19:31;10.00;;;8.25;;
15273;SDS011;7738;49.532;11.156;2022-08-19T14:22:06;9.90;;;8.60;;
15273;SDS011;7738;49.532;11.156;2022-08-19T14:24:39;12.63;;;10.35;;
15273;SDS011;7738;49.532;11.156;2022-08-19T14:27:14;13.43;;;10.10;;
15273;SDS011;7738;49.532;11.156;2022-08-19T14:29:47;15.13;;;11.77;;
15273;SDS011;7738;49.532;11.156;2022-08-19T14:32:17;13.25;;;11.05;;
15273;SDS011;7738;49.532;11.156;2022-08-19T14:34:48;15.50;;;12.35;;
15273;SDS011;7738;49.532;11.156;2022-08-19T14:37:18;14.05;;;12.50;;
15273;SDS011;7738;49.532;11.156;2022-08-19T14:39:50;16.52;;;11.77;;
15273;SDS011;7738;49.532;11.156;2022-08-19T14:42:20;16.90;;;13.10;;
15273;SDS011;7738;49.532;11.156;2022-08-19T14:44:53;13.52;;;11.15;;
15273;SDS011;7738;49.532;11.156;2022-08-19T14:47:27;14.75;;;11.95;;
15273;SDS011;7738;49.532;11.156;2022-08-19T14:49:58;16.98;;;13.00;;
15273;SDS011;7738;49.532;11.156;2022-08-19T14:52:30;18.48;;;12.75;;
15273;SDS011;7738;49.532;11.156;2022-08-19T14:55:01;14.75;;;11.48;;
15273;SDS011;7738;49.532;11.156;2022-08-19T14:57:33;16.05;;;11.80;;
15273;SDS011;7738;49.532;11.156;2022-08-19T15:00:06;16.38;;;13.40;;
15273;SDS011;7738;49.532;11.156;2022-08-19T15:02:38;15.48;;;12.55;;
15273;SDS011;7738;49.532;11.156;2022-08-19T15:05:10;15.27;;;13.48;;
15273;SDS011;7738;49.532;11.156;2022-08-19T15:07:41;15.73;;;13.43;;
15273;SDS011;7738;49.532;11.156;2022-08-19T15:10:12;17.25;;;13.75;;
15273;SDS011;7738;49.532;11.156;2022-08-19T15:12:44;17.98;;;14.93;;